Time;durP1;ratioP1;P1;durP2;ratioP2;P2;SDS_P1;SDS_P2;PMS_P1;PMS_P2;Temp;Humidity;BMP_temperature;BMP_pressure;BME280_temperature;BME280_humidity;BME280_pressure;Samples;Min_cycle;Max_cycle;Signal;HPM_P1;HPM_P2
2021/07/12 00:02:00;;;;;;;6.40;4.73;;;16.30;99.90;;;;;;4878031;29;21046;-75
2021/07/12 00:04:27;;;;;;;4.90;4.27;;;16.40;99.90;;;;;;4872641;29;20926;-75
2021/07/12 00:06:57;;;;;;;6.77;5.00;;;16.30;99.90;;;;;;4858263;29;20452;-73
2021/07/12 00:09:24;;;;;;;4.73;4.33;;;16.20;99.90;;;;;;4863883;29;20467;-74
2021/07/12 00:11:51;;;;;;;8.33;4.87;;;16.30;99.90;;;;;;4859286;29;20464;-72
2021/07/12 00:14:18;;;;;;;8.73;4.63;;;16.30;99.90;;;;;;4857625;29;20492;-76
2021/07/12 00:16:45;;;;;;;5.27;4.77;;;16.40;99.90;;;;;;4859492;29;20424;-74
2021/07/12 00:19:12;;;;;;;6.80;4.70;;;16.40;99.90;;;;;;4857757;29;21003;-75
2021/07/12 00:21:39;;;;;;;6.30;5.70;;;16.30;99.90;;;;;;4859367;29;20439;-76
2021/07/12 00:24:05;;;;;;;5.90;5.30;;;16.30;99.90;;;;;;4862866;29;21046;-77
2021/07/12 00:26:32;;;;;;;6.20;5.20;;;16.20;99.90;;;;;;4861586;29;20432;-77
2021/07/12 00:28:59;;;;;;;7.50;4.80;;;16.30;99.90;;;;;;4858712;29;20460;-74
2021/07/12 00:31:26;;;;;;;7.93;5.23;;;16.20;99.90;;;;;;4859739;29;20468;-75
2021/07/12 00:33:54;;;;;;;9.80;5.93;;;16.30;99.90;;;;;;4869643;29;20483;-77
2021/07/12 00:36:21;;;;;;;12.23;5.73;;;16.30;99.90;;;;;;4877887;29;20435;-75
2021/07/12 00:38:49;;;;;;;5.10;4.60;;;16.40;99.90;;;;;;4872249;29;20592;-76
2021/07/12 00:41:16;;;;;;;5.87;5.37;;;16.40;99.90;;;;;;4874028;29;20440;-76
2021/07/12 00:43:43;;;;;;;6.03;5.30;;;16.30;99.90;;;;;;4860348;29;20471;-77
2021/07/12 00:46:10;;;;;;;7.20;6.03;;;16.20;99.90;;;;;;4874584;29;20463;-76
2021/07/12 00:48:37;;;;;;;5.97;4.87;;;16.30;99.90;;;;;;4858979;29;20460;-75
2021/07/12 00:51:05;;;;;;;6.83;4.93;;;16.30;99.90;;;;;;4857954;29;20472;-74
2021/07/12 00:53:32;;;;;;;5.47;4.80;;;16.30;99.90;;;;;;4859868;29;20973;-76
2021/07/12 00:55:59;;;;;;;6.57;5.27;;;16.30;99.90;;;;;;4858967;29;20451;-76
2021/07/12 00:58:27;;;;;;;6.63;4.97;;;16.20;99.90;;;;;;4859396;29;20466;-73
2021/07/12 01:00:57;;;;;;;4.73;4.13;;;16.20;99.90;;;;;;4876743;29;20452;-73
2021/07/12 01:03:26;;;;;;;6.30;5.70;;;16.20;99.90;;;;;;4875307;29;20514;-74
2021/07/12 01:05:56;;;;;;;5.67;4.60;;;16.20;99.90;;;;;;4862624;29;20784;-76
2021/07/12 01:08:25;;;;;;;6.53;4.30;;;16.20;99.90;;;;;;4860262;29;20539;-76
2021/07/12 01:11:17;;;;;;;8.23;4.17;;;16.10;99.90;;;;;;4862232;29;20779;-74
2021/07/12 01:14:05;;;;;;;5.83;4.53;;;16.10;99.90;;;;;;4861360;29;20474;-76
2021/07/12 01:16:45;;;;;;;7.00;4.17;;;16.10;99.90;;;;;;4860881;29;20456;-74
2021/07/12 01:19:51;;;;;;;5.03;4.27;;;16.00;99.90;;;;;;4861515;29;20540;-76
2021/07/12 01:22:56;;;;;;;6.53;4.13;;;16.10;99.90;;;;;;4861894;29;20455;-76
2021/07/12 01:25:58;;;;;;;7.07;4.63;;;16.10;99.90;;;;;;4861473;29;20551;-76
2021/07/12 01:29:02;;;;;;;7.57;4.20;;;15.90;99.90;;;;;;4859920;29;20471;-75
2021/07/12 01:32:01;;;;;;;6.80;4.40;;;15.90;99.90;;;;;;4861947;29;20563;-77
2021/07/12 01:34:52;;;;;;;4.80;4.00;;;15.90;99.90;;;;;;4872776;29;20520;-75
2021/07/12 01:37:39;;;;;;;5.10;4.47;;;15.90;99.90;;;;;;4860474;29;20938;-74
2021/07/12 01:40:25;;;;;;;4.50;4.10;;;15.90;99.90;;;;;;4862991;29;20479;-75
2021/07/12 01:43:02;;;;;;;4.00;3.60;;;15.90;99.90;;;;;;4861830;29;20967;-76
2021/07/12 01:45:36;;;;;;;7.13;4.60;;;15.90;99.90;;;;;;4861894;29;20452;-76
2021/07/12 01:48:22;;;;;;;8.17;4.13;;;15.80;99.90;;;;;;4860628;29;20454;-75
2021/07/12 01:50:58;;;;;;;8.33;4.27;;;15.90;99.90;;;;;;4860206;29;20496;-78
2021/07/12 01:54:06;;;;;;;4.20;3.90;;;15.80;99.90;;;;;;4860964;29;20523;-77
2021/07/12 01:56:39;;;;;;;6.57;4.70;;;15.80;99.90;;;;;;4862134;29;20539;-75
2021/07/12 01:59:33;;;;;;;5.60;3.57;;;15.80;99.90;;;;;;4861697;29;21081;-75
2021/07/12 02:02:06;;;;;;;5.33;4.00;;;15.80;99.90;;;;;;4864867;29;20452;-75
2021/07/12 02:04:42;;;;;;;5.60;3.63;;;15.80;99.90;;;;;;4859648;29;20529;-75
2021/07/12 02:07:15;;;;;;;5.87;4.20;;;15.70;99.90;;;;;;4863198;29;20510;-75
2021/07/12 02:09:45;;;;;;;4.27;3.70;;;15.70;99.90;;;;;;4878826;29;20563;-78
2021/07/12 02:12:15;;;;;;;6.30;3.97;;;15.60;99.90;;;;;;4878590;29;20912;-74
2021/07/12 02:14:46;;;;;;;5.20;4.40;;;15.60;99.90;;;;;;4878337;29;20494;-75
2021/07/12 02:17:18;;;;;;;7.37;4.30;;;15.50;99.90;;;;;;4879655;29;20467;-73
2021/07/12 02:19:51;;;;;;;8.63;5.33;;;15.60;99.90;;;;;;4877596;29;20463;-74
2021/07/12 02:22:20;;;;;;;10.17;4.67;;;15.60;99.90;;;;;;4878238;29;20428;-75
2021/07/12 02:24:56;;;;;;;5.77;4.30;;;15.60;99.90;;;;;;4879763;29;21079;-74
2021/07/12 02:27:24;;;;;;;7.57;4.37;;;15.60;99.90;;;;;;4878654;29;20439;-76
2021/07/12 02:29:55;;;;;;;7.20;4.10;;;15.60;99.90;;;;;;4877865;29;20463;-75
2021/07/12 02:32:24;;;;;;;7.97;4.40;;;15.60;99.90;;;;;;4878672;29;20477;-74
2021/07/12 02:34:53;;;;;;;5.97;3.97;;;15.60;99.90;;;;;;4872642;29;20468;-77
2021/07/12 02:37:26;;;;;;;11.00;4.17;;;15.50;99.90;;;;;;4878341;29;20469;-75
2021/07/12 02:39:55;;;;;;;5.30;3.80;;;15.40;99.90;;;;;;4864282;29;20483;-74
2021/07/12 02:42:24;;;;;;;5.70;3.60;;;15.30;99.90;;;;;;4880047;29;20486;-75
2021/07/12 02:44:53;;;;;;;6.40;4.30;;;15.20;99.90;;;;;;4879846;29;20474;-76
2021/07/12 02:47:23;;;;;;;7.17;3.47;;;15.10;99.90;;;;;;4878284;29;20442;-74
2021/07/12 02:49:53;;;;;;;9.67;3.70;;;15.20;99.90;;;;;;4864803;29;20852;-75
2021/07/12 02:52:27;;;;;;;4.87;4.17;;;15.20;99.90;;;;;;4859641;29;20564;-76
2021/07/12 02:55:00;;;;;;;8.93;4.80;;;15.20;99.90;;;;;;4860468;29;20476;-76
2021/07/12 02:57:28;;;;;;;7.40;3.50;;;15.30;99.90;;;;;;4860821;29;20434;-76
2021/07/12 02:59:58;;;;;;;5.73;4.17;;;15.30;99.90;;;;;;4858583;29;20481;-74
2021/07/12 03:02:26;;;;;;;4.40;4.00;;;15.30;99.90;;;;;;4859358;29;20463;-75
2021/07/12 03:04:53;;;;;;;4.30;3.60;;;15.20;99.90;;;;;;4877222;29;20548;-76
2021/07/12 03:07:29;;;;;;;7.93;3.80;;;15.30;99.90;;;;;;4877550;29;20454;-74
2021/07/12 03:10:01;;;;;;;5.30;4.10;;;15.30;99.90;;;;;;4864112;29;20475;-75
2021/07/12 03:12:51;;;;;;;6.77;4.87;;;15.20;99.90;;;;;;4860089;29;20942;-75
2021/07/12 03:15:41;;;;;;;4.70;3.93;;;15.30;99.90;;;;;;4859500;29;20466;-76
2021/07/12 03:18:29;;;;;;;6.67;5.40;;;15.30;99.90;;;;;;4859276;29;20471;-74
2021/07/12 03:21:04;;;;;;;4.37;3.97;;;15.30;99.90;;;;;;4858727;29;20446;-76
2021/07/12 03:23:45;;;;;;;5.00;4.00;;;15.30;99.90;;;;;;4858931;29;20543;-76
2021/07/12 03:26:13;;;;;;;5.23;3.93;;;15.40;99.90;;;;;;4858895;29;20496;-74
2021/07/12 03:28:41;;;;;;;4.47;3.83;;;15.40;99.90;;;;;;4857909;29;20498;-80
2021/07/12 03:31:10;;;;;;;6.20;3.80;;;15.40;99.90;;;;;;4859844;29;20547;-76
2021/07/12 03:33:44;;;;;;;5.80;4.30;;;15.30;99.90;;;;;;4867968;29;20468;-76
2021/07/12 03:36:12;;;;;;;3.83;3.40;;;15.40;99.90;;;;;;4877458;29;20793;-75
2021/07/12 03:38:42;;;;;;;7.70;3.97;;;15.40;99.90;;;;;;4872717;29;20486;-76
2021/07/12 03:41:10;;;;;;;5.23;3.97;;;15.40;99.90;;;;;;4858882;29;20443;-76
2021/07/12 03:43:40;;;;;;;7.13;4.33;;;15.40;99.90;;;;;;4858097;29;20476;-74
2021/07/12 03:46:09;;;;;;;5.33;3.70;;;15.40;99.90;;;;;;4859931;29;20428;-78
2021/07/12 03:48:43;;;;;;;7.70;3.80;;;15.50;99.90;;;;;;4869286;29;20568;-76
2021/07/12 03:51:24;;;;;;;6.50;4.40;;;15.50;99.90;;;;;;4860735;29;20482;-74
2021/07/12 03:54:00;;;;;;;5.83;3.37;;;15.40;99.90;;;;;;4847003;29;20487;-78
2021/07/12 03:56:27;;;;;;;5.70;4.10;;;15.40;99.90;;;;;;4861750;29;20776;-74
2021/07/12 03:58:54;;;;;;;7.77;4.70;;;15.40;99.90;;;;;;4859288;29;20459;-73
2021/07/12 04:01:22;;;;;;;9.43;4.23;;;15.40;99.90;;;;;;4858827;29;20523;-75
2021/07/12 04:03:51;;;;;;;4.37;3.53;;;15.40;99.90;;;;;;4859383;29;20518;-75
2021/07/12 04:06:18;;;;;;;8.97;4.53;;;15.40;99.90;;;;;;4861390;29;20455;-77
2021/07/12 04:08:46;;;;;;;4.17;3.27;;;15.40;99.90;;;;;;4859124;29;20919;-74
2021/07/12 04:11:14;;;;;;;4.27;3.40;;;15.40;99.90;;;;;;4860098;29;20507;-76
2021/07/12 04:13:41;;;;;;;8.17;3.47;;;15.40;99.90;;;;;;4859103;29;20482;-74
2021/07/12 04:16:08;;;;;;;4.40;3.63;;;15.40;99.90;;;;;;4860229;29;20519;-74
2021/07/12 04:18:38;;;;;;;7.03;3.70;;;15.30;99.90;;;;;;4865304;29;20559;-74
2021/07/12 04:21:07;;;;;;;5.30;3.53;;;15.30;99.90;;;;;;4858820;29;20436;-76
2021/07/12 04:23:34;;;;;;;6.30;3.13;;;15.30;99.90;;;;;;4858965;29;20883;-76
2021/07/12 04:26:02;;;;;;;4.40;3.87;;;15.30;99.90;;;;;;4859020;29;20444;-74
2021/07/12 04:28:28;;;;;;;8.30;3.80;;;15.30;99.90;;;;;;4859109;29;20466;-75
2021/07/12 04:30:57;;;;;;;5.43;3.80;;;15.30;99.90;;;;;;4859887;29;20475;-74
2021/07/12 04:33:25;;;;;;;4.43;3.43;;;15.40;99.90;;;;;;4874830;29;20503;-77
2021/07/12 04:35:52;;;;;;;7.13;4.00;;;15.30;99.90;;;;;;4880516;29;20941;-75
2021/07/12 04:38:19;;;;;;;9.80;3.40;;;15.30;99.90;;;;;;4879016;29;20463;-74
2021/07/12 04:40:46;;;;;;;6.50;3.60;;;15.40;99.90;;;;;;4863202;29;20435;-78
2021/07/12 04:43:14;;;;;;;4.70;3.87;;;15.40;99.90;;;;;;4862077;29;20440;-74
2021/07/12 04:45:41;;;;;;;6.10;3.60;;;15.50;99.90;;;;;;4876903;29;20442;-75
2021/07/12 04:48:08;;;;;;;4.97;3.80;;;15.40;99.90;;;;;;4861748;29;20811;-74
2021/07/12 04:50:35;;;;;;;10.60;4.87;;;15.40;99.90;;;;;;4862643;29;20434;-75
2021/07/12 04:53:07;;;;;;;7.40;3.80;;;15.50;99.90;;;;;;4862450;29;20471;-74
2021/07/12 04:55:34;;;;;;;9.57;4.50;;;15.50;99.90;;;;;;4862619;29;20431;-75
2021/07/12 04:58:01;;;;;;;6.10;4.63;;;15.40;99.90;;;;;;4861861;29;20428;-75
2021/07/12 05:00:28;;;;;;;5.77;4.43;;;15.40;99.90;;;;;;4862489;29;20431;-75
2021/07/12 05:02:55;;;;;;;5.17;4.07;;;15.40;99.90;;;;;;4870980;29;20472;-76
2021/07/12 05:05:21;;;;;;;7.57;4.90;;;15.50;99.90;;;;;;4860446;29;20834;-75
2021/07/12 05:07:48;;;;;;;6.30;4.10;;;15.60;99.90;;;;;;4861981;29;20440;-76
2021/07/12 05:10:15;;;;;;;8.27;5.07;;;15.60;99.90;;;;;;4860213;29;20479;-73
2021/07/12 05:12:42;;;;;;;5.73;4.00;;;15.70;99.90;;;;;;4860782;29;20515;-75
2021/07/12 05:15:11;;;;;;;7.97;4.83;;;15.70;99.90;;;;;;4861426;29;20494;-73
2021/07/12 05:17:38;;;;;;;8.40;4.57;;;15.70;99.90;;;;;;4861684;29;20452;-74
2021/07/12 05:20:06;;;;;;;5.67;4.17;;;15.70;99.90;;;;;;4860239;29;20479;-75
2021/07/12 05:22:33;;;;;;;5.83;5.13;;;15.80;99.90;;;;;;4860709;29;20460;-75
2021/07/12 05:25:01;;;;;;;7.07;4.23;;;15.80;99.90;;;;;;4860309;29;20488;-74
2021/07/12 05:27:28;;;;;;;5.40;4.50;;;15.80;99.90;;;;;;4861681;29;20439;-75
2021/07/12 05:29:55;;;;;;;6.83;4.83;;;15.90;99.90;;;;;;4861321;29;20528;-74
2021/07/12 05:32:21;;;;;;;5.30;4.47;;;15.90;99.90;;;;;;4863211;29;20475;-77
2021/07/12 05:34:48;;;;;;;12.53;4.90;;;15.90;99.90;;;;;;4874205;29;20459;-77
2021/07/12 05:37:17;;;;;;;6.53;4.30;;;16.10;99.90;;;;;;4880313;29;20853;-73
2021/07/12 05:39:47;;;;;;;4.93;4.30;;;16.10;99.90;;;;;;4867218;29;20564;-73
2021/07/12 05:42:14;;;;;;;7.40;3.73;;;16.10;99.90;;;;;;4860571;29;20437;-73
2021/07/12 05:44:41;;;;;;;7.40;4.20;;;16.20;99.90;;;;;;4860618;29;20559;-73
2021/07/12 05:47:08;;;;;;;6.30;4.80;;;16.30;99.90;;;;;;4860831;29;20791;-74
2021/07/12 05:49:34;;;;;;;11.43;4.17;;;16.30;99.90;;;;;;4874639;29;20468;-75
2021/07/12 05:52:02;;;;;;;10.00;4.63;;;16.40;99.90;;;;;;4873613;29;20489;-74
2021/07/12 05:54:29;;;;;;;5.70;4.50;;;16.50;99.90;;;;;;4869432;28;20847;-75
2021/07/12 05:56:56;;;;;;;5.20;4.20;;;16.50;99.90;;;;;;4860222;29;20440;-77
2021/07/12 05:59:23;;;;;;;7.00;4.30;;;16.60;99.90;;;;;;4860969;29;20481;-76
2021/07/12 06:01:50;;;;;;;9.20;4.10;;;16.70;99.90;;;;;;4868149;29;20942;-75
2021/07/12 06:04:18;;;;;;;6.67;3.80;;;16.80;99.90;;;;;;4879556;29;20461;-74
2021/07/12 06:06:45;;;;;;;4.97;3.57;;;16.90;99.90;;;;;;4878817;29;20875;-74
2021/07/12 06:09:12;;;;;;;5.67;4.60;;;17.00;99.90;;;;;;4870719;29;20480;-75
2021/07/12 06:11:39;;;;;;;4.90;3.70;;;17.20;99.90;;;;;;4861366;29;20468;-73
2021/07/12 06:14:07;;;;;;;7.40;4.20;;;17.40;99.90;;;;;;4860582;29;21070;-72
2021/07/12 06:16:37;;;;;;;5.80;3.53;;;17.70;99.90;;;;;;4860912;29;20463;-75
2021/07/12 06:19:04;;;;;;;5.40;3.50;;;18.00;99.90;;;;;;4860454;29;20822;-74
2021/07/12 06:21:31;;;;;;;6.20;4.10;;;18.30;99.90;;;;;;4861084;29;20429;-75
2021/07/12 06:23:58;;;;;;;8.33;3.33;;;18.40;99.90;;;;;;4860005;29;20877;-73
2021/07/12 06:26:25;;;;;;;5.80;3.73;;;18.60;99.90;;;;;;4861108;29;20434;-75
2021/07/12 06:28:52;;;;;;;7.70;3.30;;;18.60;99.90;;;;;;4860209;29;20475;-74
2021/07/12 06:31:19;;;;;;;7.70;4.60;;;18.80;99.90;;;;;;4864621;29;20599;-74
2021/07/12 06:33:46;;;;;;;6.87;4.10;;;18.80;99.90;;;;;;4877793;29;20480;-74
2021/07/12 06:36:13;;;;;;;6.00;4.07;;;18.90;99.90;;;;;;4879393;29;20792;-72
2021/07/12 06:38:42;;;;;;;6.80;4.20;;;19.00;99.90;;;;;;4873885;29;20548;-74
2021/07/12 06:41:09;;;;;;;4.57;3.70;;;19.20;99.90;;;;;;4875997;29;20427;-72
2021/07/12 06:43:36;;;;;;;6.30;4.07;;;19.30;99.90;;;;;;4878811;29;20458;-75
2021/07/12 06:46:03;;;;;;;6.17;3.73;;;19.40;99.90;;;;;;4877962;29;20502;-72
2021/07/12 06:48:30;;;;;;;4.53;4.13;;;19.40;99.90;;;;;;4873894;29;20495;-72
2021/07/12 06:51:08;;;;;;;4.87;4.37;;;19.40;99.90;;;;;;4860320;29;20513;-74
2021/07/12 06:53:36;;;;;;;6.73;4.07;;;19.50;99.90;;;;;;4859803;29;20482;-74
2021/07/12 06:56:04;;;;;;;5.20;3.70;;;19.60;99.90;;;;;;4860398;29;20527;-74
2021/07/12 06:58:32;;;;;;;4.33;3.90;;;19.70;99.90;;;;;;4859630;29;20470;-73
2021/07/12 07:00:59;;;;;;;7.90;3.73;;;19.70;99.90;;;;;;4860255;29;20495;-74
2021/07/12 07:03:26;;;;;;;4.60;3.67;;;19.80;99.90;;;;;;4862278;29;20473;-74
2021/07/12 07:05:53;;;;;;;7.27;4.10;;;19.90;99.90;;;;;;4874440;29;20531;-76
2021/07/12 07:08:40;;;;;;;5.47;4.43;;;20.00;99.90;;;;;;4871708;29;20480;-74
2021/07/12 07:11:09;;;;;;;6.47;4.73;;;20.20;99.90;;;;;;4860539;29;20802;-74
2021/07/12 07:13:36;;;;;;;5.33;4.60;;;20.30;99.90;;;;;;4875841;28;20473;-72
2021/07/12 07:16:05;;;;;;;3.33;3.03;;;20.30;99.90;;;;;;4877148;29;20431;-75
2021/07/12 07:18:33;;;;;;;4.47;4.07;;;20.50;99.90;;;;;;4897408;29;20826;-72
2021/07/12 07:21:02;;;;;;;4.60;4.20;;;20.60;99.90;;;;;;4877313;29;20440;-73
2021/07/12 07:23:33;;;;;;;3.80;3.40;;;20.70;99.90;;;;;;4873399;29;20503;-72
2021/07/12 07:26:00;;;;;;;7.43;3.30;;;20.70;99.90;;;;;;4860112;29;20528;-75
2021/07/12 07:28:30;;;;;;;5.30;4.10;;;20.70;99.90;;;;;;4857817;29;20470;-75
2021/07/12 07:30:59;;;;;;;4.20;3.33;;;20.70;99.90;;;;;;4866474;29;20514;-75
2021/07/12 07:33:29;;;;;;;4.33;3.70;;;20.80;99.90;;;;;;4878581;29;20469;-73
2021/07/12 07:35:57;;;;;;;6.93;3.50;;;20.90;99.90;;;;;;4879489;29;20462;-76
2021/07/12 07:38:27;;;;;;;4.30;3.80;;;21.00;99.90;;;;;;4858707;29;20535;-73
2021/07/12 07:40:54;;;;;;;4.60;4.20;;;21.00;99.90;;;;;;4860689;29;20447;-72
2021/07/12 07:43:24;;;;;;;4.80;4.27;;;21.00;99.90;;;;;;4872642;29;20474;-75
2021/07/12 07:45:52;;;;;;;5.03;3.33;;;21.00;99.90;;;;;;4909113;29;20861;-75
2021/07/12 07:48:19;;;;;;;5.23;3.73;;;21.30;99.90;;;;;;4874049;29;20520;-72
2021/07/12 07:50:46;;;;;;;4.03;3.63;;;21.40;99.90;;;;;;4878977;29;20488;-74
2021/07/12 07:53:13;;;;;;;3.93;3.53;;;21.50;99.90;;;;;;4875868;29;20472;-73
2021/07/12 07:55:41;;;;;;;4.93;4.20;;;21.60;99.90;;;;;;4858843;29;20955;-74
2021/07/12 07:58:08;;;;;;;4.43;3.50;;;21.70;99.90;;;;;;4859325;29;20439;-76
2021/07/12 08:00:36;;;;;;;4.63;3.83;;;21.80;99.90;;;;;;4858811;29;20431;-73
2021/07/12 08:03:09;;;;;;;7.23;3.83;;;21.90;99.90;;;;;;4858054;29;20478;-72
2021/07/12 08:05:36;;;;;;;3.77;3.40;;;22.00;99.90;;;;;;4853962;29;20537;-74
2021/07/12 08:08:03;;;;;;;4.37;3.60;;;22.10;99.90;;;;;;4877711;29;20531;-74
2021/07/12 08:10:31;;;;;;;6.73;4.70;;;22.20;99.90;;;;;;4863342;29;20451;-74
2021/07/12 08:13:02;;;;;;;4.87;4.03;;;22.20;99.90;;;;;;4862267;29;21012;-73
2021/07/12 08:15:29;;;;;;;5.70;5.20;;;22.30;99.90;;;;;;4862232;29;20867;-73
2021/07/12 08:17:56;;;;;;;4.93;3.77;;;22.40;99.90;;;;;;4875994;29;20519;-74
2021/07/12 08:20:26;;;;;;;4.50;4.10;;;22.60;99.90;;;;;;4863349;29;20946;-72
2021/07/12 08:22:56;;;;;;;5.30;4.80;;;22.70;99.90;;;;;;4863042;29;20546;-74
2021/07/12 08:25:23;;;;;;;4.10;3.70;;;22.60;99.90;;;;;;4867355;29;20477;-75
2021/07/12 08:27:52;;;;;;;4.53;4.13;;;22.70;99.90;;;;;;4879940;29;20442;-73
2021/07/12 08:30:20;;;;;;;4.63;4.13;;;22.80;99.90;;;;;;4879753;29;20469;-73
2021/07/12 08:32:47;;;;;;;5.20;4.40;;;22.80;99.90;;;;;;4861488;29;20486;-73
2021/07/12 08:35:18;;;;;;;4.97;4.57;;;22.80;99.90;;;;;;4862207;29;20482;-74
2021/07/12 08:37:51;;;;;;;5.40;4.53;;;22.70;99.90;;;;;;4875976;29;20466;-71
2021/07/12 08:40:21;;;;;;;7.30;5.27;;;22.90;99.90;;;;;;4876009;29;20567;-76
2021/07/12 08:42:54;;;;;;;6.40;5.27;;;23.00;99.90;;;;;;4880527;29;20524;-73
2021/07/12 08:45:22;;;;;;;5.10;4.53;;;22.90;99.90;;;;;;4910770;28;20476;-72
2021/07/12 08:47:49;;;;;;;9.53;4.97;;;22.90;99.90;;;;;;4876230;29;20495;-72
2021/07/12 08:50:16;;;;;;;8.27;5.13;;;22.90;99.90;;;;;;4861050;29;20464;-73
2021/07/12 08:52:48;;;;;;;5.83;5.30;;;23.10;99.90;;;;;;4862605;29;20907;-74
2021/07/12 08:55:16;;;;;;;6.10;4.90;;;23.20;99.90;;;;;;4861614;29;20999;-75
2021/07/12 08:57:59;;;;;;;6.30;5.00;;;23.30;99.90;;;;;;4861169;29;20445;-76
2021/07/12 09:00:39;;;;;;;7.20;5.20;;;23.30;99.90;;;;;;4862118;29;20466;-74
2021/07/12 09:03:18;;;;;;;6.40;4.07;;;23.40;99.90;;;;;;4865203;29;20475;-74
2021/07/12 09:06:06;;;;;;;5.03;4.30;;;23.50;99.90;;;;;;4880959;29;20517;-74
2021/07/12 09:08:37;;;;;;;4.80;4.40;;;23.50;99.90;;;;;;4860070;29;20477;-74
2021/07/12 09:11:29;;;;;;;4.80;4.40;;;23.40;99.70;;;;;;4845996;29;20445;-73
2021/07/12 09:13:57;;;;;;;4.93;4.33;;;23.50;99.90;;;;;;4859550;29;20483;-75
2021/07/12 09:16:28;;;;;;;5.70;5.07;;;23.60;99.90;;;;;;4875379;29;20562;-75
2021/07/12 09:19:15;;;;;;;4.07;3.67;;;23.60;99.90;;;;;;4861217;29;20508;-73
2021/07/12 09:21:54;;;;;;;4.03;3.63;;;23.90;99.90;;;;;;4861754;29;20452;-73
2021/07/12 09:24:34;;;;;;;4.10;3.70;;;24.00;95.90;;;;;;4860443;29;20539;-74
2021/07/12 09:27:08;;;;;;;7.37;4.87;;;23.90;95.60;;;;;;4878231;29;21011;-77
2021/07/12 09:29:38;;;;;;;4.57;3.60;;;24.00;95.80;;;;;;4878976;29;20473;-74
2021/07/12 09:32:08;;;;;;;5.67;4.40;;;23.90;97.80;;;;;;4875711;29;20451;-74
2021/07/12 09:34:37;;;;;;;6.23;4.20;;;23.90;96.70;;;;;;4861542;29;20467;-73
2021/07/12 09:37:06;;;;;;;4.10;3.80;;;23.70;95.50;;;;;;4860583;29;20535;-71
2021/07/12 09:39:36;;;;;;;4.30;3.90;;;23.70;93.20;;;;;;4874309;29;21016;-75
2021/07/12 09:42:25;;;;;;;4.40;4.00;;;23.60;97.10;;;;;;4860745;29;20426;-75
2021/07/12 09:44:56;;;;;;;5.93;4.43;;;23.60;97.50;;;;;;4874955;29;20465;-75
2021/07/12 09:47:26;;;;;;;5.13;4.63;;;23.50;97.70;;;;;;4875331;29;20541;-74
2021/07/12 09:50:02;;;;;;;5.43;4.80;;;23.40;97.10;;;;;;4861249;29;21235;-75
2021/07/12 09:52:49;;;;;;;5.47;4.87;;;23.30;96.00;;;;;;4858281;29;20479;-74
2021/07/12 09:55:22;;;;;;;5.43;4.90;;;23.20;97.80;;;;;;4860859;29;20480;-73
2021/07/12 09:58:18;;;;;;;5.80;5.30;;;23.20;99.50;;;;;;4860208;29;21362;-74
2021/07/12 10:00:47;;;;;;;4.90;4.50;;;23.10;99.90;;;;;;4860159;29;20457;-75
2021/07/12 10:03:19;;;;;;;6.37;5.77;;;23.10;99.90;;;;;;4861199;29;20533;-74
2021/07/12 10:05:47;;;;;;;6.80;4.40;;;23.00;97.20;;;;;;4861483;29;20432;-75
2021/07/12 10:08:15;;;;;;;4.70;4.30;;;23.00;98.00;;;;;;4859428;29;20452;-74
2021/07/12 10:10:42;;;;;;;6.10;5.13;;;23.10;98.00;;;;;;4861521;29;20455;-73
2021/07/12 10:13:12;;;;;;;5.83;4.90;;;23.00;99.90;;;;;;4860828;29;20838;-72
2021/07/12 10:15:39;;;;;;;4.60;4.20;;;23.00;99.90;;;;;;4860189;29;20420;-77
2021/07/12 10:18:07;;;;;;;3.87;3.47;;;23.00;96.90;;;;;;4859771;29;20482;-75
2021/07/12 10:20:36;;;;;;;3.13;2.83;;;23.00;95.20;;;;;;4861362;29;20431;-76
2021/07/12 10:23:05;;;;;;;5.47;3.87;;;23.10;93.30;;;;;;4860531;29;20812;-71
2021/07/12 10:25:35;;;;;;;5.13;4.50;;;23.10;95.00;;;;;;4877433;29;20482;-72
2021/07/12 10:28:07;;;;;;;4.43;4.03;;;23.10;97.30;;;;;;4875946;28;20539;-74
2021/07/12 10:30:49;;;;;;;3.80;3.27;;;23.00;97.50;;;;;;4879092;29;20435;-74
2021/07/12 10:33:29;;;;;;;5.10;3.70;;;23.10;95.60;;;;;;4862845;29;20642;-75
2021/07/12 10:35:57;;;;;;;5.13;4.50;;;23.10;94.90;;;;;;4844437;29;20822;-75
2021/07/12 10:38:40;;;;;;;3.97;3.57;;;23.20;95.60;;;;;;4843331;29;20500;-74
2021/07/12 10:41:22;;;;;;;4.47;4.07;;;23.30;95.20;;;;;;4860812;29;20485;-73
2021/07/12 10:43:57;;;;;;;3.93;3.53;;;23.20;96.00;;;;;;4858556;29;20469;-75
2021/07/12 10:46:27;;;;;;;3.50;3.20;;;23.30;96.50;;;;;;4861051;29;20492;-72
2021/07/12 10:49:00;;;;;;;3.17;2.87;;;23.50;91.80;;;;;;4879304;29;20884;-74
2021/07/12 10:51:32;;;;;;;4.40;3.97;;;23.50;91.20;;;;;;4878994;29;20481;-73
2021/07/12 10:54:04;;;;;;;3.23;2.93;;;23.50;92.30;;;;;;4871024;29;20483;-75
2021/07/12 10:56:57;;;;;;;3.93;3.30;;;23.50;92.50;;;;;;4859831;29;20425;-77
2021/07/12 10:59:38;;;;;;;4.50;3.40;;;23.50;92.30;;;;;;4861419;29;20478;-74
2021/07/12 11:02:14;;;;;;;3.80;3.40;;;23.50;92.30;;;;;;4860441;29;20456;-72
2021/07/12 11:05:06;;;;;;;4.57;4.13;;;23.50;91.10;;;;;;4863480;29;20467;-74
2021/07/12 11:07:45;;;;;;;4.50;4.10;;;23.40;92.50;;;;;;4859884;29;20927;-72
2021/07/12 11:10:25;;;;;;;4.27;3.87;;;23.40;91.90;;;;;;4853577;29;21075;-75
2021/07/12 11:12:55;;;;;;;4.60;3.50;;;23.40;92.40;;;;;;4875718;29;20482;-74
2021/07/12 11:15:22;;;;;;;6.20;3.10;;;23.40;91.80;;;;;;4874790;29;20511;-73
2021/07/12 11:17:50;;;;;;;4.30;3.90;;;23.40;91.40;;;;;;4860781;29;20447;-72
2021/07/12 11:20:37;;;;;;;5.30;3.13;;;23.40;92.50;;;;;;4877479;29;20528;-76
2021/07/12 11:23:04;;;;;;;4.77;3.80;;;23.30;92.10;;;;;;4877545;29;20502;-75
2021/07/12 11:25:43;;;;;;;4.27;3.23;;;23.30;91.70;;;;;;4877816;29;20449;-72
2021/07/12 11:28:14;;;;;;;4.60;4.20;;;23.30;91.50;;;;;;4878736;29;20462;-74
2021/07/12 11:30:42;;;;;;;4.17;3.27;;;23.20;92.50;;;;;;4865725;29;20440;-73
2021/07/12 11:33:22;;;;;;;4.10;3.50;;;23.20;93.30;;;;;;4873303;29;20496;-74
2021/07/12 11:35:56;;;;;;;3.47;3.17;;;23.20;92.40;;;;;;4859045;29;20441;-75
2021/07/12 11:38:23;;;;;;;3.40;2.80;;;23.20;91.80;;;;;;4859192;29;20958;-72
2021/07/12 11:41:05;;;;;;;3.47;3.17;;;23.20;90.30;;;;;;4860073;29;20447;-73
2021/07/12 11:43:32;;;;;;;4.20;3.17;;;23.20;90.40;;;;;;4876115;29;20571;-73
2021/07/12 11:46:01;;;;;;;3.70;2.73;;;23.20;91.40;;;;;;4878848;29;20465;-75
2021/07/12 11:48:29;;;;;;;6.13;3.47;;;23.10;91.30;;;;;;4861669;29;20467;-75
2021/07/12 11:50:57;;;;;;;5.20;3.60;;;23.20;92.40;;;;;;4860513;29;20869;-72
2021/07/12 11:53:24;;;;;;;3.70;3.23;;;23.10;91.80;;;;;;4863512;29;20478;-72
2021/07/12 11:55:51;;;;;;;4.93;3.80;;;23.20;92.80;;;;;;4858627;29;20542;-75
2021/07/12 11:58:22;;;;;;;4.77;3.57;;;23.10;92.30;;;;;;4859292;29;20490;-75
2021/07/12 12:00:49;;;;;;;3.63;3.23;;;23.20;92.40;;;;;;4860597;29;20441;-75
2021/07/12 12:03:16;;;;;;;3.60;3.23;;;23.10;93.30;;;;;;4867237;29;21000;-73
2021/07/12 12:05:45;;;;;;;3.37;3.07;;;23.20;92.40;;;;;;4859579;29;20427;-73
2021/07/12 12:08:18;;;;;;;3.73;2.50;;;23.20;92.40;;;;;;4858986;29;20436;-76
2021/07/12 12:10:47;;;;;;;3.20;2.70;;;23.20;92.40;;;;;;4874963;29;20438;-74
2021/07/12 12:13:20;;;;;;;3.07;2.70;;;23.20;92.20;;;;;;4876985;29;20474;-73
2021/07/12 12:15:50;;;;;;;3.97;3.57;;;23.20;92.10;;;;;;4900495;29;20441;-74
2021/07/12 12:18:30;;;;;;;4.33;3.40;;;23.20;92.70;;;;;;4874075;29;20449;-74
2021/07/12 12:21:00;;;;;;;4.10;2.90;;;23.20;94.10;;;;;;4877313;29;20443;-73
2021/07/12 12:23:35;;;;;;;9.10;3.47;;;23.20;93.90;;;;;;4874926;29;20545;-73
2021/07/12 12:26:13;;;;;;;4.80;3.50;;;23.10;94.40;;;;;;4859491;29;20526;-71
2021/07/12 12:28:44;;;;;;;5.30;4.10;;;23.10;94.70;;;;;;4857512;29;20551;-73
2021/07/12 12:31:32;;;;;;;4.00;3.33;;;23.10;94.60;;;;;;4858793;29;20529;-74
2021/07/12 12:34:00;;;;;;;6.13;3.03;;;23.10;95.10;;;;;;4867035;29;20487;-75
2021/07/12 12:36:32;;;;;;;3.63;3.33;;;23.10;94.10;;;;;;4876999;29;20429;-75
2021/07/12 12:39:01;;;;;;;2.53;2.23;;;22.90;94.70;;;;;;4870524;29;20568;-74
2021/07/12 12:41:30;;;;;;;3.80;2.97;;;22.90;94.40;;;;;;4859526;29;20443;-72
2021/07/12 12:44:14;;;;;;;3.93;2.77;;;22.80;97.00;;;;;;4859057;29;20476;-75
2021/07/12 12:46:48;;;;;;;3.30;2.17;;;22.70;97.70;;;;;;4858000;29;20449;-73
2021/07/12 12:49:25;;;;;;;4.70;2.70;;;22.70;95.60;;;;;;4838348;29;20472;-73
2021/07/12 12:52:20;;;;;;;2.83;2.43;;;22.60;95.80;;;;;;4846143;29;20478;-74
2021/07/12 12:54:52;;;;;;;2.40;2.20;;;22.60;94.90;;;;;;4870791;29;20489;-74
2021/07/12 12:57:28;;;;;;;2.20;1.70;;;22.60;93.60;;;;;;4867693;29;20506;-74
2021/07/12 13:00:26;;;;;;;3.40;2.70;;;22.70;94.50;;;;;;4879015;29;20507;-75
2021/07/12 13:02:53;;;;;;;2.53;2.33;;;22.70;94.30;;;;;;4861688;29;20877;-72
2021/07/12 13:05:22;;;;;;;2.57;2.37;;;22.70;94.60;;;;;;4860873;29;20480;-72
2021/07/12 13:07:54;;;;;;;2.40;2.10;;;22.70;94.00;;;;;;4860923;29;20459;-74
2021/07/12 13:10:27;;;;;;;6.10;3.00;;;22.80;94.50;;;;;;4874586;29;20545;-75